Time;durP1;ratioP1;P1;durP2;ratioP2;P2;SDS_P1;SDS_P2;PMS_P1;PMS_P2;Temp;Humidity;BMP_temperature;BMP_pressure;BME280_temperature;BME280_humidity;BME280_pressure;Samples;Min_cycle;Max_cycle;Signal;HPM_P1;HPM_P2
2022/02/28 00:01:28;;;;;;;;;41.75;24.00;;;;;6.83;50.27;102472.22;5054678;28;45285;-76
2022/02/28 00:03:55;;;;;;;;;39.00;27.00;;;;;6.81;50.52;102470.31;5056037;28;45304;-77
2022/02/28 00:06:20;;;;;;;;;33.00;26.25;;;;;6.80;50.31;102479.03;5056204;28;47441;-76
2022/02/28 00:08:46;;;;;;;;;38.00;30.00;;;;;6.76;50.46;102464.81;5054871;28;59810;-77
2022/02/28 00:11:11;;;;;;;;;35.50;28.50;;;;;6.71;50.48;102465.41;5054026;28;45342;-77
2022/02/28 00:13:37;;;;;;;;;39.25;35.50;;;;;6.74;50.54;102487.47;5056155;28;45488;-78
2022/02/28 00:16:02;;;;;;;;;43.00;28.50;;;;;6.64;50.60;102464.19;5054662;28;46666;-77
2022/02/28 00:18:28;;;;;;;;;40.75;32.00;;;;;6.72;50.79;102493.47;5054923;28;45319;-77
2022/02/28 00:20:53;;;;;;;;;44.50;35.00;;;;;6.68;50.63;102483.63;5054002;28;51150;-77
2022/02/28 00:23:19;;;;;;;;;39.50;32.75;;;;;6.66;50.78;102486.19;5054660;28;55234;-77
2022/02/28 00:25:44;;;;;;;;;41.75;33.25;;;;;6.65;50.72;102489.59;5055641;28;45583;-77
2022/02/28 00:28:10;;;;;;;;;45.25;34.50;;;;;6.64;51.03;102487.81;5055546;28;45407;-76
2022/02/28 00:30:35;;;;;;;;;32.00;25.75;;;;;6.63;51.14;102495.59;5056284;28;45473;-77
2022/02/28 00:33:01;;;;;;;;;39.00;32.25;;;;;6.53;50.96;102478.47;5037804;28;45525;-76
2022/02/28 00:35:26;;;;;;;;;35.75;27.50;;;;;6.57;51.24;102481.34;5055487;28;47490;-77
2022/02/28 00:37:51;;;;;;;;;43.00;28.00;;;;;6.52;51.31;102484.53;5055555;28;55402;-77
2022/02/28 00:40:17;;;;;;;;;32.00;25.50;;;;;6.56;51.26;102486.50;5054769;28;57270;-77
2022/02/28 00:42:43;;;;;;;;;39.50;28.75;;;;;6.56;51.43;102491.75;5054310;28;45562;-77
2022/02/28 00:45:09;;;;;;;;;36.00;25.50;;;;;6.55;51.32;102493.47;5054992;28;45544;-77
2022/02/28 00:47:34;;;;;;;;;36.75;26.75;;;;;6.55;51.58;102482.97;5055559;28;45588;-77
2022/02/28 00:49:59;;;;;;;;;33.00;24.75;;;;;6.54;51.53;102490.75;5054515;28;45367;-77
2022/02/28 00:52:25;;;;;;;;;35.75;23.50;;;;;6.53;51.66;102502.06;5054764;28;55399;-77
2022/02/28 00:54:50;;;;;;;;;32.50;19.50;;;;;6.51;51.58;102493.22;5054729;28;53046;-77
2022/02/28 00:57:15;;;;;;;;;18.25;17.00;;;;;6.51;51.68;102494.13;5053408;28;60191;-77
2022/02/28 00:59:41;;;;;;;;;13.75;12.50;;;;;6.51;51.89;102498.47;5054902;28;56541;-77
2022/02/28 01:02:06;;;;;;;;;17.00;13.50;;;;;6.51;51.94;102498.47;5037651;28;45455;-76
2022/02/28 01:04:32;;;;;;;;;13.25;11.25;;;;;6.46;51.70;102486.84;5055113;28;45531;-77
2022/02/28 01:06:57;;;;;;;;;9.00;9.00;;;;;6.53;51.75;102500.34;5054868;28;59597;-77
2022/02/28 01:09:22;;;;;;;;;14.00;12.25;;;;;6.55;52.18;102505.66;5054955;28;53953;-77
2022/02/28 01:11:48;;;;;;;;;7.25;7.25;;;;;6.55;52.00;102505.66;5054388;28;56038;-76
2022/02/28 01:14:13;;;;;;;;;10.50;9.25;;;;;6.53;52.04;102507.31;5055086;28;61551;-78
2022/02/28 01:16:39;;;;;;;;;12.75;8.75;;;;;6.56;52.01;102508.41;5054689;28;59026;-77
2022/02/28 01:19:04;;;;;;;;;7.75;7.50;;;;;6.60;52.01;102500.69;5053365;28;56682;-76
2022/02/28 01:21:29;;;;;;;;;8.50;8.50;;;;;6.61;51.85;102505.13;5054620;28;50044;-77
2022/02/28 01:23:55;;;;;;;;;11.25;8.00;;;;;6.67;51.70;102516.84;5057190;28;61939;-77
2022/02/28 01:26:20;;;;;;;;;9.00;6.75;;;;;6.68;52.04;102504.63;5056638;28;61954;-77
2022/02/28 01:28:45;;;;;;;;;12.25;7.00;;;;;6.74;51.81;102508.47;5058067;28;48425;-76
2022/02/28 01:31:11;;;;;;;;;9.25;9.00;;;;;6.79;51.87;102521.84;5058817;28;45485;-77
2022/02/28 01:33:36;;;;;;;;;11.75;6.50;;;;;6.80;51.59;102513.16;5058033;28;58848;-76
2022/02/28 01:36:02;;;;;;;;;10.00;8.75;;;;;6.81;51.64;102507.06;5056634;28;55418;-77
2022/02/28 01:38:27;;;;;;;;;9.75;9.00;;;;;6.84;51.79;102496.75;5058889;28;45514;-76
2022/02/28 01:40:53;;;;;;;;;6.25;6.00;;;;;6.84;51.69;102507.25;5058532;28;45269;-77
2022/02/28 01:43:18;;;;;;;;;13.75;10.00;;;;;6.87;51.63;102503.88;5057363;28;62914;-76
2022/02/28 01:45:44;;;;;;;;;12.50;7.75;;;;;6.81;51.57;102491.31;5057434;28;60856;-77
2022/02/28 01:48:09;;;;;;;;;13.00;8.75;;;;;6.83;51.84;102506.34;5057698;28;45260;-76
2022/02/28 01:50:34;;;;;;;;;10.50;10.25;;;;;6.79;51.57;102499.13;5058429;28;45425;-76
2022/02/28 01:53:00;;;;;;;;;12.00;8.00;;;;;6.80;51.29;102503.53;5056924;28;46460;-76
2022/02/28 01:55:25;;;;;;;;;13.00;7.50;;;;;6.78;51.66;102502.56;5039756;28;45305;-77
2022/02/28 01:57:51;;;;;;;;;9.75;9.75;;;;;6.77;51.62;102498.16;5058309;28;45309;-77
2022/02/28 02:00:19;;;;;;;;;13.75;9.75;;;;;6.74;51.82;102497.97;5057991;28;45449;-77
2022/02/28 02:02:44;;;;;;;;;11.00;6.50;;;;;6.70;51.80;102492.47;5056127;28;45442;-76
2022/02/28 02:05:10;;;;;;;;;10.75;8.00;;;;;6.72;51.82;102494.38;5057697;28;45561;-76
2022/02/28 02:07:35;;;;;;;;;9.00;6.50;;;;;6.65;51.78;102492.22;5057801;28;45362;-76
2022/02/28 02:10:05;;;;;;;;;8.75;8.75;;;;;6.68;51.78;102489.78;5057575;28;52975;-76
2022/02/28 02:12:31;;;;;;;;;15.75;10.50;;;;;6.67;51.92;102489.72;5057200;28;46616;-76
2022/02/28 02:14:56;;;;;;;;;14.75;12.50;;;;;6.64;51.93;102493.06;5057124;28;56974;-76
2022/02/28 02:17:21;;;;;;;;;17.25;11.25;;;;;6.64;51.82;102494.78;5055935;28;52897;-76
2022/02/28 02:19:47;;;;;;;;;13.50;11.25;;;;;6.62;51.94;102488.56;5057485;28;49871;-76
2022/02/28 02:22:15;;;;;;;;;15.00;11.25;;;;;6.59;52.04;102486.66;5057108;28;47342;-77
2022/02/28 02:24:41;;;;;;;;;13.00;11.25;;;;;6.58;51.84;102482.22;5039869;28;45445;-76
2022/02/28 02:27:06;;;;;;;;;13.50;13.50;;;;;6.57;51.87;102483.97;5057314;28;53045;-77
2022/02/28 02:29:38;;;;;;;;;19.25;14.25;;;;;6.56;52.06;102487.41;5057229;28;50555;-77
2022/02/28 02:32:14;;;;;;;;;18.50;13.00;;;;;6.54;52.18;102488.13;5057060;28;45644;-77
2022/02/28 02:34:39;;;;;;;;;14.50;14.00;;;;;6.51;52.18;102478.38;5053287;28;45336;-77
2022/02/28 02:37:05;;;;;;;;;13.00;13.00;;;;;6.48;52.31;102486.06;5056312;28;45460;-76
2022/02/28 02:39:30;;;;;;;;;22.00;14.50;;;;;6.46;52.30;102471.09;5057654;28;45383;-76
2022/02/28 02:41:56;;;;;;;;;14.25;12.00;;;;;6.43;52.24;102477.06;5056001;28;63462;-76
2022/02/28 02:44:21;;;;;;;;;17.50;17.25;;;;;6.42;52.42;102480.50;5055987;28;50378;-77
2022/02/28 02:46:47;;;;;;;;;21.75;16.50;;;;;6.37;52.38;102474.09;5056555;28;56405;-76
2022/02/28 02:49:14;;;;;;;;;21.25;16.25;;;;;6.38;52.42;102489.00;5055822;28;45319;-77
2022/02/28 02:51:42;;;;;;;;;18.25;14.00;;;;;6.32;52.53;102474.66;5055556;28;47417;-77
2022/02/28 02:54:08;;;;;;;;;21.75;17.50;;;;;6.33;52.32;102481.72;5056833;28;45373;-76
2022/02/28 02:56:34;;;;;;;;;18.75;18.50;;;;;6.30;52.27;102482.47;5056741;28;45323;-76
2022/02/28 02:59:00;;;;;;;;;22.50;18.00;;;;;6.25;52.53;102482.22;5056486;28;45362;-77
2022/02/28 03:01:26;;;;;;;;;22.75;16.25;;;;;6.24;52.37;102496.16;5056135;28;60876;-77
2022/02/28 03:03:53;;;;;;;;;25.75;17.75;;;;;6.20;52.63;102486.28;5056830;28;46067;-77
2022/02/28 03:06:18;;;;;;;;;16.00;13.75;;;;;6.15;52.70;102481.63;5056491;28;45323;-76
2022/02/28 03:08:43;;;;;;;;;19.25;13.00;;;;;6.16;52.66;102484.31;5053008;28;56165;-77
2022/02/28 03:11:09;;;;;;;;;18.75;16.25;;;;;6.14;52.84;102498.19;5056250;28;45601;-76
2022/02/28 03:13:34;;;;;;;;;19.75;16.25;;;;;6.08;52.94;102477.75;5056720;28;45550;-78
2022/02/28 03:15:59;;;;;;;;;18.25;15.75;;;;;6.08;52.92;102483.00;5055353;28;55667;-77
2022/02/28 03:18:25;;;;;;;;;29.00;15.75;;;;;6.06;53.10;102487.25;5055236;28;52784;-77
2022/02/28 03:20:50;;;;;;;;;21.25;14.25;;;;;6.02;52.99;102480.06;5056400;28;45630;-77
2022/02/28 03:23:16;;;;;;;;;16.50;14.25;;;;;5.98;52.84;102475.44;5056443;28;54274;-77
2022/02/28 03:25:41;;;;;;;;;18.75;12.75;;;;;5.98;53.15;102480.69;5055921;28;55730;-77
2022/02/28 03:28:06;;;;;;;;;19.75;15.75;;;;;5.89;53.11;102465.28;5056214;28;54279;-76
2022/02/28 03:30:32;;;;;;;;;18.00;15.25;;;;;5.91;53.37;102470.63;5056558;28;46392;-77
2022/02/28 03:32:57;;;;;;;;;20.75;19.50;;;;;5.88;53.31;102475.69;5056030;28;45338;-77
2022/02/28 03:35:23;;;;;;;;;17.00;13.25;;;;;5.84;53.46;102469.38;5038597;28;45339;-76
2022/02/28 03:37:48;;;;;;;;;15.75;14.00;;;;;5.82;53.02;102465.78;5054342;28;45581;-76
2022/02/28 03:40:14;;;;;;;;;24.50;16.00;;;;;5.82;53.36;102467.50;5056987;28;46218;-76
2022/02/28 03:42:39;;;;;;;;;22.25;15.50;;;;;5.79;53.24;102479.59;5056521;28;45462;-76
2022/02/28 03:45:05;;;;;;;;;20.00;18.75;;;;;5.77;53.47;102477.72;5056238;28;45466;-77
2022/02/28 03:47:31;;;;;;;;;19.25;19.00;;;;;5.74;53.16;102467.94;5054668;28;45421;-77
2022/02/28 03:49:56;;;;;;;;;16.00;12.25;;;;;5.72;53.38;102466.97;5055939;28;60619;-76
2022/02/28 03:52:22;;;;;;;;;19.75;13.75;;;;;5.70;53.65;102457.19;5056485;28;57109;-76
2022/02/28 03:54:47;;;;;;;;;19.00;16.50;;;;;5.66;53.81;102469.25;5057020;28;45461;-77
2022/02/28 03:57:12;;;;;;;;;18.00;13.25;;;;;5.65;53.40;102466.53;5056524;28;45842;-78
2022/02/28 03:59:38;;;;;;;;;18.50;13.50;;;;;5.64;53.48;102483.97;5048631;28;46780;-77
2022/02/28 04:02:03;;;;;;;;;26.25;14.25;;;;;5.61;53.85;102485.53;5054432;28;45489;-76
2022/02/28 04:04:29;;;;;;;;;12.00;9.25;;;;;5.59;53.80;102476.66;5055253;28;45600;-77
2022/02/28 04:06:54;;;;;;;;;17.25;14.50;;;;;5.56;53.74;102466.00;5056159;28;45387;-77
2022/02/28 04:09:20;;;;;;;;;16.00;13.75;;;;;5.56;53.73;102481.72;5055625;28;64159;-76
2022/02/28 04:11:46;;;;;;;;;14.25;10.50;;;;;5.48;53.89;102469.06;5056143;28;45489;-76
2022/02/28 04:14:11;;;;;;;;;12.75;11.75;;;;;5.48;53.97;102478.66;5054212;28;55292;-77
2022/02/28 04:16:36;;;;;;;;;13.00;11.50;;;;;5.46;53.80;102478.56;5055891;28;49168;-76
2022/02/28 04:19:02;;;;;;;;;14.25;13.00;;;;;5.44;53.93;102482.84;5054088;28;45861;-76
2022/02/28 04:21:28;;;;;;;;;14.25;12.50;;;;;5.42;54.04;102484.44;5054825;28;45232;-77
2022/02/28 04:23:53;;;;;;;;;12.50;12.00;;;;;5.41;53.99;102489.59;5037322;28;59311;-76
2022/02/28 04:26:19;;;;;;;;;23.50;15.50;;;;;5.39;54.25;102494.75;5055946;28;45612;-76
2022/02/28 04:28:45;;;;;;;;;12.25;12.25;;;;;5.36;54.35;102484.09;5054559;28;45676;-76
2022/02/28 04:31:11;;;;;;;;;18.75;13.00;;;;;5.34;54.19;102495.31;5054239;28;45484;-76
2022/02/28 04:33:36;;;;;;;;;20.00;12.50;;;;;5.29;54.49;102483.66;5055580;28;45259;-76
2022/02/28 04:36:02;;;;;;;;;20.00;14.75;;;;;5.33;54.11;102497.03;5054261;28;52230;-77
2022/02/28 04:38:27;;;;;;;;;14.75;12.00;;;;;5.33;54.10;102498.75;5054238;28;45996;-76
2022/02/28 04:40:52;;;;;;;;;18.25;13.25;;;;;5.32;54.50;102494.28;5050355;28;45558;-76
2022/02/28 04:43:18;;;;;;;;;15.25;15.00;;;;;5.29;54.34;102492.41;5046889;28;53745;-77
2022/02/28 04:45:43;;;;;;;;;20.50;15.75;;;;;5.26;54.21;102484.34;5047897;28;45323;-76
2022/02/28 04:48:09;;;;;;;;;13.25;12.25;;;;;5.24;53.97;102489.50;5055463;28;52942;-76
2022/02/28 04:50:34;;;;;;;;;21.00;14.75;;;;;5.21;54.83;102489.31;5053688;28;45445;-76
2022/02/28 04:52:59;;;;;;;;;18.00;13.25;;;;;5.19;54.56;102485.72;5054547;28;45996;-76
2022/02/28 04:55:25;;;;;;;;;19.25;12.25;;;;;5.19;54.54;102493.56;5053952;28;51314;-76
2022/02/28 04:57:50;;;;;;;;;15.25;15.25;;;;;5.17;54.96;102492.59;5056270;28;59983;-76
2022/02/28 05:00:16;;;;;;;;;19.75;15.75;;;;;5.15;54.63;102493.28;5058504;28;45183;-76
2022/02/28 05:02:41;;;;;;;;;23.50;16.00;;;;;5.13;54.76;102498.44;5057341;28;45428;-76
2022/02/28 05:05:07;;;;;;;;;25.50;19.75;;;;;5.06;54.94;102493.66;5058522;28;47247;-77
2022/02/28 05:07:32;;;;;;;;;17.75;15.50;;;;;5.11;54.78;102507.00;5058307;28;46131;-77
2022/02/28 05:09:58;;;;;;;;;19.50;14.75;;;;;5.04;54.88;102503.13;5058040;28;45248;-77
2022/02/28 05:12:23;;;;;;;;;22.25;13.25;;;;;5.10;55.13;102510.44;5058682;28;45268;-77
2022/02/28 05:14:48;;;;;;;;;21.50;17.25;;;;;5.06;54.76;102506.75;5057657;28;52341;-77
2022/02/28 05:17:14;;;;;;;;;21.50;11.50;;;;;5.03;54.88;102503.94;5058373;28;45652;-77
2022/02/28 05:19:39;;;;;;;;;23.00;17.50;;;;;5.07;55.16;102519.03;5023473;28;60369;-76
2022/02/28 05:22:05;;;;;;;;;17.25;14.00;;;;;4.98;55.63;102505.38;5058209;28;50940;-76
2022/02/28 05:24:31;;;;;;;;;18.75;15.75;;;;;5.02;55.51;102517.84;5058744;28;45668;-76
2022/02/28 05:26:56;;;;;;;;;23.00;13.50;;;;;5.02;55.13;102523.09;5056786;28;45367;-76
2022/02/28 05:29:21;;;;;;;;;23.00;19.75;;;;;5.03;54.99;102527.50;5056643;28;59786;-76
2022/02/28 05:31:47;;;;;;;;;12.00;12.00;;;;;5.02;55.13;102525.69;5057587;28;45493;-77
2022/02/28 05:34:12;;;;;;;;;17.75;17.50;;;;;5.01;55.41;102529.13;5056756;28;48322;-75
2022/02/28 05:36:38;;;;;;;;;18.75;12.00;;;;;4.94;55.29;102516.47;5058251;28;45620;-76
2022/02/28 05:39:03;;;;;;;;;14.50;14.00;;;;;4.97;55.61;102533.28;5057480;28;58471;-76
2022/02/28 05:41:28;;;;;;;;;20.00;17.75;;;;;4.97;55.50;102527.13;5058146;28;45465;-76
2022/02/28 05:43:54;;;;;;;;;14.00;12.00;;;;;4.96;55.32;102526.22;5057554;28;51586;-77
2022/02/28 05:46:19;;;;;;;;;18.75;12.25;;;;;5.00;55.21;102537.78;5057789;28;45716;-76
2022/02/28 05:48:45;;;;;;;;;17.25;12.75;;;;;4.94;55.53;102525.22;5058121;28;58357;-76
2022/02/28 05:51:10;;;;;;;;;23.25;15.00;;;;;4.98;55.53;102537.69;5060454;28;45257;-77
2022/02/28 05:53:36;;;;;;;;;16.00;12.50;;;;;4.96;55.52;102531.47;5058543;28;45609;-77
2022/02/28 05:56:01;;;;;;;;;22.00;15.25;;;;;4.96;55.54;102535.81;5057234;28;45514;-76
2022/02/28 05:58:26;;;;;;;;;19.50;18.00;;;;;4.94;55.31;102532.16;5057254;28;58486;-76
2022/02/28 06:00:52;;;;;;;;;22.00;15.75;;;;;4.91;55.36;102538.13;5056135;28;45452;-76
2022/02/28 06:03:17;;;;;;;;;17.00;14.50;;;;;4.89;55.90;102538.84;5055087;28;53450;-76
2022/02/28 06:05:42;;;;;;;;;11.75;9.00;;;;;4.85;55.42;102536.88;5057755;28;46418;-76
2022/02/28 06:08:08;;;;;;;;;12.50;10.25;;;;;4.83;56.01;102547.22;5055442;28;45236;-77
2022/02/28 06:10:33;;;;;;;;;22.75;16.25;;;;;4.80;55.66;102539.19;5057026;28;54894;-76
2022/02/28 06:12:59;;;;;;;;;19.50;13.75;;;;;4.79;56.14;102544.31;5057884;28;45567;-76
2022/02/28 06:15:24;;;;;;;;;18.00;12.50;;;;;4.77;56.11;102543.31;5055952;28;62697;-76
2022/02/28 06:17:49;;;;;;;;;16.50;14.75;;;;;4.73;55.84;102543.13;5057050;28;56134;-76
2022/02/28 06:20:15;;;;;;;;;21.25;14.75;;;;;4.71;55.54;102546.47;5057134;28;55378;-76
2022/02/28 06:22:40;;;;;;;;;20.00;15.00;;;;;4.68;55.74;102544.53;5057043;28;54395;-76
2022/02/28 06:25:06;;;;;;;;;17.00;14.75;;;;;4.66;55.84;102546.16;5056995;28;61648;-77
2022/02/28 06:27:31;;;;;;;;;18.50;16.00;;;;;4.64;56.13;102545.19;5057400;28;45357;-76
2022/02/28 06:29:56;;;;;;;;;21.50;15.50;;;;;4.63;55.92;102543.34;5027849;28;53454;-77
2022/02/28 06:32:22;;;;;;;;;18.25;14.00;;;;;4.62;56.24;102541.56;5054794;28;55472;-76
2022/02/28 06:34:47;;;;;;;;;19.75;11.75;;;;;4.61;55.99;102542.38;5056120;28;61542;-77
2022/02/28 06:37:13;;;;;;;;;21.00;11.75;;;;;4.58;56.50;102544.81;5055587;28;45406;-76
2022/02/28 06:39:38;;;;;;;;;19.75;13.75;;;;;4.59;56.50;102550.94;5055702;28;45543;-76
2022/02/28 06:42:04;;;;;;;;;22.25;15.00;;;;;4.60;56.45;102544.91;5055557;28;57031;-76
2022/02/28 06:44:29;;;;;;;;;20.00;15.75;;;;;4.61;56.60;102557.16;5056543;28;45733;-77
2022/02/28 06:46:55;;;;;;;;;19.75;13.25;;;;;4.57;56.78;102539.47;5056685;28;55957;-76
2022/02/28 06:49:20;;;;;;;;;16.50;13.75;;;;;4.61;56.11;102550.22;5055030;28;45543;-76
2022/02/28 06:51:46;;;;;;;;;27.00;20.25;;;;;4.58;56.41;102542.19;5053064;28;55046;-77
2022/02/28 06:54:11;;;;;;;;;24.75;19.25;;;;;4.61;56.73;102546.69;5051322;28;57544;-76
2022/02/28 06:56:36;;;;;;;;;23.25;15.75;;;;;4.61;56.87;102546.69;5050254;28;63271;-76
2022/02/28 06:59:02;;;;;;;;;15.50;15.50;;;;;4.63;56.55;102547.69;5052672;28;45674;-77
2022/02/28 07:01:27;;;;;;;;;21.25;16.50;;;;;4.63;57.21;102548.59;5054484;28;47343;-76
2022/02/28 07:03:53;;;;;;;;;18.25;15.25;;;;;4.65;57.01;102548.72;5056342;28;46364;-75
2022/02/28 07:06:22;;;;;;;;;14.00;14.00;;;;;4.65;56.67;102536.53;5050185;28;56347;-75
2022/02/28 07:08:48;;;;;;;;;11.50;11.50;;;;;4.68;57.13;102555.00;5049041;28;45622;-74
2022/02/28 07:11:13;;;;;;;;;21.50;17.75;;;;;4.69;56.86;102558.56;5056586;28;45267;-76
2022/02/28 07:13:39;;;;;;;;;20.25;15.25;;;;;4.65;57.37;102547.00;5056457;28;46894;-76
2022/02/28 07:16:04;;;;;;;;;21.25;17.25;;;;;4.72;56.98;102554.41;5055041;28;57036;-76
2022/02/28 07:18:30;;;;;;;;;22.75;15.00;;;;;4.75;56.81;102568.50;5040951;28;45617;-76
2022/02/28 07:20:55;;;;;;;;;21.00;16.25;;;;;4.77;56.87;102566.88;5062479;28;45501;-76
2022/02/28 07:23:20;;;;;;;;;14.25;14.25;;;;;4.80;56.95;102580.16;5055020;28;47163;-76
2022/02/28 07:25:46;;;;;;;;;22.00;15.00;;;;;4.80;56.63;102569.69;5053738;28;59358;-75
2022/02/28 07:28:11;;;;;;;;;22.25;15.25;;;;;4.84;56.99;102579.53;5056076;28;48830;-76
2022/02/28 07:30:37;;;;;;;;;28.50;17.75;;;;;4.86;57.16;102573.59;5055878;28;55462;-76
2022/02/28 07:33:02;;;;;;;;;29.00;20.25;;;;;4.90;57.13;102572.03;5054666;28;45620;-76
2022/02/28 07:35:28;;;;;;;;;28.00;19.00;;;;;4.93;56.90;102586.22;5054255;28;60332;-75
2022/02/28 07:37:53;;;;;;;;;21.50;16.25;;;;;4.91;57.01;102566.03;5059168;27;49798;-77
2022/02/28 07:40:19;;;;;;;;;22.50;17.00;;;;;4.98;56.69;102579.56;5057470;27;45592;-75
2022/02/28 07:42:44;;;;;;;;;24.50;19.50;;;;;5.00;57.29;102579.66;5060041;28;60109;-77
2022/02/28 07:45:10;;;;;;;;;39.25;29.75;;;;;5.02;56.71;102585.00;5060274;28;50911;-76
2022/02/28 07:47:35;;;;;;;;;34.25;26.50;;;;;5.07;57.00;102588.81;5060189;28;45853;-75
2022/02/28 07:50:01;;;;;;;;;25.25;19.50;;;;;5.05;56.91;102580.84;5060149;27;45382;-76
2022/02/28 07:52:26;;;;;;;;;35.50;25.50;;;;;5.11;57.14;102585.56;5055688;28;46393;-75
2022/02/28 07:54:51;;;;;;;;;27.00;24.25;;;;;5.16;56.99;102585.03;5058856;28;60467;-75
2022/02/28 07:57:17;;;;;;;;;24.50;20.00;;;;;5.21;57.11;102582.69;5056368;28;53390;-75
2022/02/28 07:59:42;;;;;;;;;26.50;21.25;;;;;5.23;56.87;102576.75;5057005;27;53167;-75
2022/02/28 08:02:08;;;;;;;;;31.00;22.25;;;;;5.29;56.76;102563.13;5055551;28;46392;-75
2022/02/28 08:04:33;;;;;;;;;22.75;19.00;;;;;5.34;57.08;102568.63;5057927;28;45442;-82
2022/02/28 08:06:59;;;;;;;;;26.00;17.50;;;;;5.43;57.13;102571.78;5046038;28;54835;-78
2022/02/28 08:09:26;;;;;;;;;16.00;14.50;;;;;5.45;57.02;102562.31;5060649;28;45453;-78
2022/02/28 08:11:52;;;;;;;;;21.75;13.00;;;;;5.57;56.46;102560.41;5059025;28;47412;-77
2022/02/28 08:14:18;;;;;;;;;17.00;13.50;;;;;5.67;56.52;102564.47;5065473;28;45558;-77
2022/02/28 08:16:43;;;;;;;;;21.50;14.25;;;;;5.76;56.01;102568.56;5064708;27;45692;-76
2022/02/28 08:19:09;;;;;;;;;17.25;13.75;;;;;5.75;56.07;102555.34;5064694;28;45637;-75
2022/02/28 08:21:34;;;;;;;;;14.25;12.75;;;;;5.90;56.00;102566.72;5059444;28;64300;-74
2022/02/28 08:23:59;;;;;;;;;17.00;13.75;;;;;5.97;55.13;102555.81;5065232;28;59040;-78
2022/02/28 08:26:25;;;;;;;;;18.50;14.00;;;;;6.04;54.94;102557.97;5060266;28;45492;-78
2022/02/28 08:28:50;;;;;;;;;16.25;13.50;;;;;6.13;54.94;102549.72;5065930;28;54548;-74
2022/02/28 08:31:15;;;;;;;;;16.25;12.00;;;;;6.20;54.61;102544.00;5061386;28;46447;-78
2022/02/28 08:33:41;;;;;;;;;17.75;14.25;;;;;6.26;55.17;102554.84;5066055;28;59358;-76
2022/02/28 08:36:06;;;;;;;;;16.75;11.75;;;;;6.35;54.47;102548.31;5065130;27;55569;-77
2022/02/28 08:38:32;;;;;;;;;20.50;14.75;;;;;6.44;54.27;102559.28;5067777;27;45347;-79
2022/02/28 08:40:57;;;;;;;;;21.00;14.25;;;;;6.50;54.52;102557.94;5068656;27;63216;-75
2022/02/28 08:43:22;;;;;;;;;13.75;11.00;;;;;6.58;54.33;102568.84;5065199;28;61121;-76
2022/02/28 08:45:48;;;;;;;;;20.00;14.00;;;;;6.65;53.91;102577.94;5067132;28;45896;-75
2022/02/28 08:48:13;;;;;;;;;18.25;13.00;;;;;6.67;53.53;102550.97;5064763;27;45464;-75
2022/02/28 08:50:39;;;;;;;;;17.75;16.50;;;;;6.78;53.67;102565.59;5065722;27;60189;-76
2022/02/28 08:53:04;;;;;;;;;22.00;16.00;;;;;6.85;53.73;102565.91;5068225;27;45752;-75
2022/02/28 08:55:29;;;;;;;;;13.75;13.75;;;;;6.91;53.42;102558.34;5068459;27;58567;-75
2022/02/28 08:57:55;;;;;;;;;20.75;17.00;;;;;6.97;53.37;102553.44;5069429;28;56721;-75
2022/02/28 09:00:20;;;;;;;;;18.00;16.75;;;;;7.02;53.45;102549.31;5068485;28;46584;-76
2022/02/28 09:02:46;;;;;;;;;17.25;14.25;;;;;7.07;53.22;102556.63;5056744;28;46221;-75
2022/02/28 09:05:11;;;;;;;;;14.50;12.75;;;;;7.13;52.97;102563.03;5064976;28;45399;-75
2022/02/28 09:07:37;;;;;;;;;19.00;14.00;;;;;7.16;52.73;102566.72;5062569;28;45574;-76
2022/02/28 09:10:03;;;;;;;;;23.00;14.50;;;;;7.21;52.91;102561.72;5058966;28;47711;-76
2022/02/28 09:12:28;;;;;;;;;14.50;14.25;;;;;7.25;52.74;102547.91;5059499;28;45394;-78
2022/02/28 09:14:53;;;;;;;;;21.00;12.25;;;;;7.31;52.55;102542.97;5059362;28;45541;-76
2022/02/28 09:17:19;;;;;;;;;21.25;14.50;;;;;7.36;52.34;102552.00;5063968;28;51445;-77
2022/02/28 09:19:44;;;;;;;;;18.25;14.75;;;;;7.41;52.28;102554.88;5064561;28;46421;-77
2022/02/28 09:22:09;;;;;;;;;22.75;18.00;;;;;7.42;52.61;102559.31;5057618;28;61028;-77
2022/02/28 09:24:35;;;;;;;;;19.25;14.25;;;;;7.50;52.49;102560.56;5057433;28;56555;-77
2022/02/28 09:27:01;;;;;;;;;18.50;14.25;;;;;7.55;51.76;102569.59;5058879;28;45446;-76
2022/02/28 09:29:29;;;;;;;;;18.75;16.00;;;;;7.60;51.33;102565.47;5057119;28;46586;-76
2022/02/28 09:31:55;;;;;;;;;19.50;16.25;;;;;7.68;51.57;102568.53;5058052;28;45418;-77
2022/02/28 09:34:20;;;;;;;;;23.50;19.50;;;;;7.71;50.41;102577.44;5057610;27;45540;-75
2022/02/28 09:36:47;;;;;;;;;17.75;15.00;;;;;7.77;50.77;102583.00;5057840;27;45352;-76
2022/02/28 09:39:13;;;;;;;;;19.00;15.00;;;;;7.80;51.15;102579.66;5056672;28;47610;-76
2022/02/28 09:41:39;;;;;;;;;18.75;16.75;;;;;7.84;50.89;102571.09;5056385;28;45552;-76
2022/02/28 09:44:05;;;;;;;;;21.75;13.50;;;;;7.95;50.43;102582.16;5057057;28;45434;-76
2022/02/28 09:46:31;;;;;;;;;22.75;16.00;;;;;8.02;50.98;102581.59;5057143;28;45512;-76
2022/02/28 09:48:56;;;;;;;;;24.25;16.75;;;;;8.06;50.85;102579.22;5056281;28;47237;-76
2022/02/28 09:51:22;;;;;;;;;20.50;16.50;;;;;8.13;50.60;102585.66;5040030;28;45419;-76
2022/02/28 09:53:47;;;;;;;;;19.50;13.00;;;;;8.18;49.54;102581.53;5056633;28;45299;-76
2022/02/28 09:56:12;;;;;;;;;20.25;17.25;;;;;8.25;49.77;102574.84;5058379;28;45258;-77
2022/02/28 09:58:38;;;;;;;;;15.00;12.00;;;;;8.30;49.24;102565.44;5057229;28;62206;-76
2022/02/28 10:01:03;;;;;;;;;17.00;17.00;;;;;8.31;49.85;102562.91;5057100;28;45511;-75
2022/02/28 10:03:29;;;;;;;;;17.00;15.50;;;;;8.37;48.08;102571.13;5057957;28;45288;-76
2022/02/28 10:05:59;;;;;;;;;21.25;15.00;;;;;8.46;48.80;102575.91;5057382;28;45434;-76
2022/02/28 10:08:43;;;;;;;;;20.00;15.00;;;;;8.51;48.42;102570.84;5057883;28;47322;-76
2022/02/28 10:11:31;;;;;;;;;18.00;16.75;;;;;8.57;48.56;102571.13;5057597;28;45346;-76
2022/02/28 10:13:57;;;;;;;;;12.75;12.75;;;;;8.61;48.50;102579.25;5058007;28;45446;-76
2022/02/28 10:16:32;;;;;;;;;18.75;17.00;;;;;8.67;48.59;102591.81;5058229;28;45300;-77
2022/02/28 10:18:58;;;;;;;;;26.25;17.75;;;;;8.72;47.80;102587.66;5057575;28;47270;-76
2022/02/28 10:21:43;;;;;;;;;22.75;18.50;;;;;8.77;48.52;102586.13;5057809;28;45432;-76
2022/02/28 10:24:10;;;;;;;;;18.50;15.00;;;;;8.83;48.65;102591.69;5057546;28;45260;-77
2022/02/28 10:26:43;;;;;;;;;18.50;14.50;;;;;8.88;47.93;102587.53;5058100;28;45216;-76
2022/02/28 10:29:11;;;;;;;;;22.25;17.75;;;;;8.94;48.12;102592.19;5057347;28;47468;-76
2022/02/28 10:31:38;;;;;;;;;19.50;17.25;;;;;8.99;47.41;102593.28;5057589;28;45600;-76
2022/02/28 10:34:22;;;;;;;;;24.00;20.75;;;;;9.06;47.79;102587.50;5057356;28;45516;-76
2022/02/28 10:37:02;;;;;;;;;21.75;17.75;;;;;9.12;47.13;102587.75;5057629;28;45646;-77
2022/02/28 10:39:30;;;;;;;;;24.50;20.25;;;;;9.17;47.00;102587.97;5055702;28;47342;-76
2022/02/28 10:41:56;;;;;;;;;21.50;18.25;;;;;9.24;47.34;102575.97;5057628;28;45335;-76
2022/02/28 10:44:22;;;;;;;;;20.50;18.00;;;;;9.23;47.01;102569.78;5038763;28;45537;-78
2022/02/28 10:46:49;;;;;;;;;24.75;18.75;;;;;9.34;47.20;102586.09;5056230;28;45335;-76
2022/02/28 10:49:21;;;;;;;;;20.50;18.25;;;;;9.36;44.90;102571.22;5057005;28;47579;-77
2022/02/28 10:51:50;;;;;;;;;23.00;19.00;;;;;9.49;46.93;102585.88;5047730;28;45296;-76
2022/02/28 10:54:21;;;;;;;;;17.50;17.50;;;;;9.53;45.02;102579.84;5056923;28;45368;-77
2022/02/28 10:56:48;;;;;;;;;24.75;19.00;;;;;9.58;45.13;102584.50;5196748;22;45725;-75
2022/02/28 10:59:15;;;;;;;;;28.00;19.75;;;;;9.64;46.55;102595.34;5097350;27;46542;-77
2022/02/28 11:01:41;;;;;;;;;16.25;14.00;;;;;9.67;45.09;102586.63;5097895;27;45841;-75
2022/02/28 11:04:07;;;;;;;;;17.25;16.75;;;;;9.77;45.47;102591.47;5093433;27;45487;-76
2022/02/28 11:06:34;;;;;;;;;23.00;20.00;;;;;9.78;45.22;102568.63;5098890;27;45236;-76
2022/02/28 11:08:59;;;;;;;;;25.00;19.25;;;;;9.86;45.84;102585.69;5098372;27;47348;-77
2022/02/28 11:11:25;;;;;;;;;24.25;20.00;;;;;9.88;45.82;102577.00;5098171;27;45445;-77
2022/02/28 11:13:51;;;;;;;;;24.25;19.50;;;;;9.92;44.97;102580.66;5098413;27;45246;-76